sensor_id;sensor_type;location;lat;lon;timestamp;pressure;altitude;pressure_sealevel;temperature
12007;BMP180;6062;47.294;12.182;2022-08-24T00:00:19;80930.00;;;12.40
12007;BMP180;6062;47.294;12.182;2022-08-24T00:02:46;80926.00;;;12.30
12007;BMP180;6062;47.294;12.182;2022-08-24T00:05:12;80927.00;;;12.30
12007;BMP180;6062;47.294;12.182;2022-08-24T00:07:37;80929.00;;;12.20
12007;BMP180;6062;47.294;12.182;2022-08-24T00:10:08;80927.00;;;12.20
12007;BMP180;6062;47.294;12.182;2022-08-24T00:12:34;80926.00;;;12.10
12007;BMP180;6062;47.294;12.182;2022-08-24T00:15:00;80924.00;;;12.10
12007;BMP180;6062;47.294;12.182;2022-08-24T00:17:26;80924.00;;;12.00
12007;BMP180;6062;47.294;12.182;2022-08-24T00:19:52;80926.00;;;12.00
12007;BMP180;6062;47.294;12.182;2022-08-24T00:22:17;80924.00;;;12.00
12007;BMP180;6062;47.294;12.182;2022-08-24T00:24:43;80925.00;;;12.00
12007;BMP180;6062;47.294;12.182;2022-08-24T00:27:09;80916.00;;;11.90
12007;BMP180;6062;47.294;12.182;2022-08-24T00:29:37;80919.00;;;11.90
12007;BMP180;6062;47.294;12.182;2022-08-24T00:32:04;80923.00;;;11.90
12007;BMP180;6062;47.294;12.182;2022-08-24T00:34:29;80921.00;;;11.80
12007;BMP180;6062;47.294;12.182;2022-08-24T00:36:57;80919.00;;;11.80
12007;BMP180;6062;47.294;12.182;2022-08-24T00:39:23;80914.00;;;11.80
12007;BMP180;6062;47.294;12.182;2022-08-24T00:41:50;80917.00;;;11.80
12007;BMP180;6062;47.294;12.182;2022-08-24T00:44:18;80915.00;;;11.70
12007;BMP180;6062;47.294;12.182;2022-08-24T00:47:17;80912.00;;;11.70
12007;BMP180;6062;47.294;12.182;2022-08-24T00:49:55;80909.00;;;11.70
12007;BMP180;6062;47.294;12.182;2022-08-24T00:52:37;80909.00;;;11.70
12007;BMP180;6062;47.294;12.182;2022-08-24T00:55:15;80904.00;;;11.70
12007;BMP180;6062;47.294;12.182;2022-08-24T00:57:47;80910.00;;;11.70
12007;BMP180;6062;47.294;12.182;2022-08-24T01:00:22;80905.00;;;11.70
12007;BMP180;6062;47.294;12.182;2022-08-24T01:02:55;80906.00;;;11.60
12007;BMP180;6062;47.294;12.182;2022-08-24T01:05:24;80902.00;;;11.60
12007;BMP180;6062;47.294;12.182;2022-08-24T01:07:50;80900.00;;;11.60
12007;BMP180;6062;47.294;12.182;2022-08-24T01:10:25;80907.00;;;11.70
12007;BMP180;6062;47.294;12.182;2022-08-24T01:12:57;80895.00;;;11.60
12007;BMP180;6062;47.294;12.182;2022-08-24T01:15:23;80896.00;;;11.60
12007;BMP180;6062;47.294;12.182;2022-08-24T01:17:49;80891.00;;;11.60
12007;BMP180;6062;47.294;12.182;2022-08-24T01:20:34;80899.00;;;11.60
12007;BMP180;6062;47.294;12.182;2022-08-24T01:25:43;80897.00;;;11.60
12007;BMP180;6062;47.294;12.182;2022-08-24T01:28:15;80891.00;;;11.60
12007;BMP180;6062;47.294;12.182;2022-08-24T01:30:43;80887.00;;;11.60
12007;BMP180;6062;47.294;12.182;2022-08-24T01:33:24;80883.00;;;11.60
12007;BMP180;6062;47.294;12.182;2022-08-24T01:36:00;80887.00;;;11.50
12007;BMP180;6062;47.294;12.182;2022-08-24T01:38:27;80882.00;;;11.50
12007;BMP180;6062;47.294;12.182;2022-08-24T01:40:59;80888.00;;;11.50
12007;BMP180;6062;47.294;12.182;2022-08-24T01:43:25;80889.00;;;11.50
12007;BMP180;6062;47.294;12.182;2022-08-24T01:45:52;80884.00;;;11.60
12007;BMP180;6062;47.294;12.182;2022-08-24T01:48:19;80885.00;;;11.60
12007;BMP180;6062;47.294;12.182;2022-08-24T01:50:44;80880.00;;;11.50
12007;BMP180;6062;47.294;12.182;2022-08-24T01:53:11;80880.00;;;11.60
12007;BMP180;6062;47.294;12.182;2022-08-24T01:55:36;80883.00;;;11.60
12007;BMP180;6062;47.294;12.182;2022-08-24T01:58:04;80879.00;;;11.60
12007;BMP180;6062;47.294;12.182;2022-08-24T02:00:31;80878.00;;;11.60
12007;BMP180;6062;47.294;12.182;2022-08-24T02:02:57;80877.00;;;11.60
12007;BMP180;6062;47.294;12.182;2022-08-24T02:05:23;80873.00;;;11.60
12007;BMP180;6062;47.294;12.182;2022-08-24T02:07:51;80885.00;;;11.60
12007;BMP180;6062;47.294;12.182;2022-08-24T02:10:18;80879.00;;;11.70
12007;BMP180;6062;47.294;12.182;2022-08-24T02:12:47;80880.00;;;11.70
12007;BMP180;6062;47.294;12.182;2022-08-24T02:15:37;80889.00;;;11.70
12007;BMP180;6062;47.294;12.182;2022-08-24T02:18:06;80883.00;;;11.70
12007;BMP180;6062;47.294;12.182;2022-08-24T02:20:33;80887.00;;;11.70
12007;BMP180;6062;47.294;12.182;2022-08-24T02:22:59;80886.00;;;11.70
12007;BMP180;6062;47.294;12.182;2022-08-24T02:25:26;80882.00;;;11.70
12007;BMP180;6062;47.294;12.182;2022-08-24T02:27:59;80889.00;;;11.70
12007;BMP180;6062;47.294;12.182;2022-08-24T02:30:27;80894.00;;;11.70
12007;BMP180;6062;47.294;12.182;2022-08-24T02:32:53;80892.00;;;11.70
12007;BMP180;6062;47.294;12.182;2022-08-24T02:35:19;80890.00;;;11.70
12007;BMP180;6062;47.294;12.182;2022-08-24T02:37:44;80890.00;;;11.70
12007;BMP180;6062;47.294;12.182;2022-08-24T02:40:12;80888.00;;;11.70
12007;BMP180;6062;47.294;12.182;2022-08-24T02:42:38;80889.00;;;11.70
12007;BMP180;6062;47.294;12.182;2022-08-24T02:45:06;80886.00;;;11.80
12007;BMP180;6062;47.294;12.182;2022-08-24T02:47:33;80885.00;;;11.80
12007;BMP180;6062;47.294;12.182;2022-08-24T02:50:01;80889.00;;;11.70
12007;BMP180;6062;47.294;12.182;2022-08-24T02:52:28;80891.00;;;11.70
12007;BMP180;6062;47.294;12.182;2022-08-24T02:54:54;80891.00;;;11.70
12007;BMP180;6062;47.294;12.182;2022-08-24T02:57:19;80891.00;;;11.70
12007;BMP180;6062;47.294;12.182;2022-08-24T02:59:45;80895.00;;;11.70
12007;BMP180;6062;47.294;12.182;2022-08-24T03:02:11;80889.00;;;11.70
12007;BMP180;6062;47.294;12.182;2022-08-24T03:04:37;80891.00;;;11.60
12007;BMP180;6062;47.294;12.182;2022-08-24T03:07:03;80893.00;;;11.60
12007;BMP180;6062;47.294;12.182;2022-08-24T03:09:29;80884.00;;;11.60
12007;BMP180;6062;47.294;12.182;2022-08-24T03:11:55;80885.00;;;11.50
12007;BMP180;6062;47.294;12.182;2022-08-24T03:14:21;80891.00;;;11.50
12007;BMP180;6062;47.294;12.182;2022-08-24T03:16:46;80885.00;;;11.50
12007;BMP180;6062;47.294;12.182;2022-08-24T03:19:12;80878.00;;;11.40
12007;BMP180;6062;47.294;12.182;2022-08-24T03:21:40;80882.00;;;11.40
12007;BMP180;6062;47.294;12.182;2022-08-24T03:24:07;80884.00;;;11.40
12007;BMP180;6062;47.294;12.182;2022-08-24T03:26:33;80873.00;;;11.40
12007;BMP180;6062;47.294;12.182;2022-08-24T03:28:59;80878.00;;;11.40
12007;BMP180;6062;47.294;12.182;2022-08-24T03:31:25;80878.00;;;11.40
12007;BMP180;6062;47.294;12.182;2022-08-24T03:33:50;80879.00;;;11.40
12007;BMP180;6062;47.294;12.182;2022-08-24T03:36:16;80878.00;;;11.40
12007;BMP180;6062;47.294;12.182;2022-08-24T03:38:42;80878.00;;;11.30
12007;BMP180;6062;47.294;12.182;2022-08-24T03:41:09;80880.00;;;11.30
12007;BMP180;6062;47.294;12.182;2022-08-24T03:43:37;80880.00;;;11.30
12007;BMP180;6062;47.294;12.182;2022-08-24T03:46:21;80877.00;;;11.30
12007;BMP180;6062;47.294;12.182;2022-08-24T03:48:48;80871.00;;;11.30
12007;BMP180;6062;47.294;12.182;2022-08-24T03:51:18;80875.00;;;11.30
12007;BMP180;6062;47.294;12.182;2022-08-24T03:53:44;80861.00;;;11.20
12007;BMP180;6062;47.294;12.182;2022-08-24T03:56:10;80866.00;;;11.20
12007;BMP180;6062;47.294;12.182;2022-08-24T03:58:40;80861.00;;;11.20
12007;BMP180;6062;47.294;12.182;2022-08-24T04:01:07;80864.00;;;11.20
12007;BMP180;6062;47.294;12.182;2022-08-24T04:03:39;80859.00;;;11.20
12007;BMP180;6062;47.294;12.182;2022-08-24T04:06:06;80866.00;;;11.20
12007;BMP180;6062;47.294;12.182;2022-08-24T04:08:33;80862.00;;;11.20
12007;BMP180;6062;47.294;12.182;2022-08-24T04:11:00;80862.00;;;11.20
12007;BMP180;6062;47.294;12.182;2022-08-24T04:13:26;80866.00;;;11.20
12007;BMP180;6062;47.294;12.182;2022-08-24T04:16:13;80860.00;;;11.20
12007;BMP180;6062;47.294;12.182;2022-08-24T04:18:40;80863.00;;;11.20
12007;BMP180;6062;47.294;12.182;2022-08-24T04:21:15;80854.00;;;11.20
12007;BMP180;6062;47.294;12.182;2022-08-24T04:23:41;80861.00;;;11.20
12007;BMP180;6062;47.294;12.182;2022-08-24T04:26:07;80857.00;;;11.30
12007;BMP180;6062;47.294;12.182;2022-08-24T04:28:32;80847.00;;;11.30
12007;BMP180;6062;47.294;12.182;2022-08-24T04:30:58;80849.00;;;11.30
12007;BMP180;6062;47.294;12.182;2022-08-24T04:33:25;80859.00;;;11.30
12007;BMP180;6062;47.294;12.182;2022-08-24T04:35:51;80858.00;;;11.30
12007;BMP180;6062;47.294;12.182;2022-08-24T04:38:18;80854.00;;;11.30
12007;BMP180;6062;47.294;12.182;2022-08-24T04:40:45;80857.00;;;11.30
12007;BMP180;6062;47.294;12.182;2022-08-24T04:43:12;80858.00;;;11.40
12007;BMP180;6062;47.294;12.182;2022-08-24T04:45:45;80851.00;;;11.40
12007;BMP180;6062;47.294;12.182;2022-08-24T04:48:13;80849.00;;;11.40
12007;BMP180;6062;47.294;12.182;2022-08-24T04:50:42;80850.00;;;11.50
12007;BMP180;6062;47.294;12.182;2022-08-24T04:53:10;80858.00;;;11.60
12007;BMP180;6062;47.294;12.182;2022-08-24T04:55:48;80863.00;;;11.70
12007;BMP180;6062;47.294;12.182;2022-08-24T04:58:17;80864.00;;;11.80
12007;BMP180;6062;47.294;12.182;2022-08-24T05:00:44;80864.00;;;12.00
12007;BMP180;6062;47.294;12.182;2022-08-24T05:03:10;80871.00;;;12.20
12007;BMP180;6062;47.294;12.182;2022-08-24T05:05:40;80864.00;;;12.40
12007;BMP180;6062;47.294;12.182;2022-08-24T05:08:07;80866.00;;;12.70
12007;BMP180;6062;47.294;12.182;2022-08-24T05:10:33;80874.00;;;12.90
12007;BMP180;6062;47.294;12.182;2022-08-24T05:12:59;80880.00;;;13.20
12007;BMP180;6062;47.294;12.182;2022-08-24T05:15:24;80876.00;;;13.40
12007;BMP180;6062;47.294;12.182;2022-08-24T05:17:50;80875.00;;;13.70
12007;BMP180;6062;47.294;12.182;2022-08-24T05:20:16;80881.00;;;14.00
12007;BMP180;6062;47.294;12.182;2022-08-24T05:22:42;80876.00;;;14.30
12007;BMP180;6062;47.294;12.182;2022-08-24T05:25:08;80885.00;;;14.50
12007;BMP180;6062;47.294;12.182;2022-08-24T05:27:34;80884.00;;;14.80
12007;BMP180;6062;47.294;12.182;2022-08-24T05:30:00;80884.00;;;15.10
12007;BMP180;6062;47.294;12.182;2022-08-24T05:32:27;80876.00;;;15.40
12007;BMP180;6062;47.294;12.182;2022-08-24T05:34:53;80878.00;;;15.70
12007;BMP180;6062;47.294;12.182;2022-08-24T05:37:19;80875.00;;;16.00
12007;BMP180;6062;47.294;12.182;2022-08-24T05:39:44;80881.00;;;16.30
12007;BMP180;6062;47.294;12.182;2022-08-24T05:42:10;80881.00;;;16.60
12007;BMP180;6062;47.294;12.182;2022-08-24T05:44:37;80873.00;;;17.00
12007;BMP180;6062;47.294;12.182;2022-08-24T05:47:03;80878.00;;;17.30
12007;BMP180;6062;47.294;12.182;2022-08-24T05:49:29;80883.00;;;17.50
12007;BMP180;6062;47.294;12.182;2022-08-24T05:51:55;80876.00;;;17.80
12007;BMP180;6062;47.294;12.182;2022-08-24T05:54:21;80882.00;;;18.20
12007;BMP180;6062;47.294;12.182;2022-08-24T05:56:48;80880.00;;;18.40
12007;BMP180;6062;47.294;12.182;2022-08-24T05:59:14;80884.00;;;18.70
12007;BMP180;6062;47.294;12.182;2022-08-24T06:01:42;80880.00;;;18.90
12007;BMP180;6062;47.294;12.182;2022-08-24T06:04:08;80887.00;;;19.10
12007;BMP180;6062;47.294;12.182;2022-08-24T06:06:33;80888.00;;;19.40
12007;BMP180;6062;47.294;12.182;2022-08-24T06:09:00;80896.00;;;19.80
12007;BMP180;6062;47.294;12.182;2022-08-24T06:11:36;80893.00;;;20.20
12007;BMP180;6062;47.294;12.182;2022-08-24T06:14:06;80891.00;;;20.60
12007;BMP180;6062;47.294;12.182;2022-08-24T06:16:39;80895.00;;;21.00
12007;BMP180;6062;47.294;12.182;2022-08-24T06:19:07;80893.00;;;21.40
12007;BMP180;6062;47.294;12.182;2022-08-24T06:21:33;80892.00;;;21.60
12007;BMP180;6062;47.294;12.182;2022-08-24T06:23:59;80896.00;;;21.80
12007;BMP180;6062;47.294;12.182;2022-08-24T06:26:27;80891.00;;;21.90
12007;BMP180;6062;47.294;12.182;2022-08-24T06:29:12;80892.00;;;22.00
12007;BMP180;6062;47.294;12.182;2022-08-24T06:31:43;80893.00;;;22.00
12007;BMP180;6062;47.294;12.182;2022-08-24T06:34:13;80886.00;;;22.10
12007;BMP180;6062;47.294;12.182;2022-08-24T06:36:39;80892.00;;;22.30
12007;BMP180;6062;47.294;12.182;2022-08-24T06:39:07;80897.00;;;22.60
12007;BMP180;6062;47.294;12.182;2022-08-24T06:41:34;80893.00;;;22.80
12007;BMP180;6062;47.294;12.182;2022-08-24T06:44:00;80896.00;;;23.10
12007;BMP180;6062;47.294;12.182;2022-08-24T06:46:26;80902.00;;;23.30
12007;BMP180;6062;47.294;12.182;2022-08-24T06:48:53;80899.00;;;23.30
12007;BMP180;6062;47.294;12.182;2022-08-24T06:51:21;80908.00;;;23.30
12007;BMP180;6062;47.294;12.182;2022-08-24T06:53:48;80897.00;;;23.30
12007;BMP180;6062;47.294;12.182;2022-08-24T06:56:16;80902.00;;;23.40
12007;BMP180;6062;47.294;12.182;2022-08-24T06:58:43;80905.00;;;23.60
12007;BMP180;6062;47.294;12.182;2022-08-24T07:01:33;80906.00;;;23.80
12007;BMP180;6062;47.294;12.182;2022-08-24T07:03:58;80912.00;;;24.00
12007;BMP180;6062;47.294;12.182;2022-08-24T07:06:25;80917.00;;;24.00
12007;BMP180;6062;47.294;12.182;2022-08-24T07:08:52;80915.00;;;24.10
12007;BMP180;6062;47.294;12.182;2022-08-24T07:11:19;80920.00;;;24.20
12007;BMP180;6062;47.294;12.182;2022-08-24T07:13:47;80915.00;;;24.40
12007;BMP180;6062;47.294;12.182;2022-08-24T07:16:19;80921.00;;;24.40
12007;BMP180;6062;47.294;12.182;2022-08-24T07:18:45;80919.00;;;24.50
12007;BMP180;6062;47.294;12.182;2022-08-24T07:21:11;80915.00;;;24.60
12007;BMP180;6062;47.294;12.182;2022-08-24T07:23:37;80905.00;;;24.80
12007;BMP180;6062;47.294;12.182;2022-08-24T07:26:14;80907.00;;;25.00
12007;BMP180;6062;47.294;12.182;2022-08-24T07:28:40;80908.00;;;25.20
12007;BMP180;6062;47.294;12.182;2022-08-24T07:31:07;80907.00;;;25.60
12007;BMP180;6062;47.294;12.182;2022-08-24T07:33:34;80900.00;;;26.00
12007;BMP180;6062;47.294;12.182;2022-08-24T07:36:00;80912.00;;;26.10
12007;BMP180;6062;47.294;12.182;2022-08-24T07:38:26;80901.00;;;26.20
12007;BMP180;6062;47.294;12.182;2022-08-24T07:40:53;80911.00;;;26.10
12007;BMP180;6062;47.294;12.182;2022-08-24T07:43:19;80908.00;;;25.90
12007;BMP180;6062;47.294;12.182;2022-08-24T07:45:47;80908.00;;;25.80
12007;BMP180;6062;47.294;12.182;2022-08-24T07:48:14;80913.00;;;25.70
12007;BMP180;6062;47.294;12.182;2022-08-24T07:50:40;80912.00;;;25.60
12007;BMP180;6062;47.294;12.182;2022-08-24T07:53:06;80913.00;;;25.60
12007;BMP180;6062;47.294;12.182;2022-08-24T07:55:32;80913.00;;;25.70
12007;BMP180;6062;47.294;12.182;2022-08-24T07:57:58;80921.00;;;26.00
12007;BMP180;6062;47.294;12.182;2022-08-24T08:00:24;80923.00;;;26.10
12007;BMP180;6062;47.294;12.182;2022-08-24T08:02:50;80926.00;;;26.10
12007;BMP180;6062;47.294;12.182;2022-08-24T08:05:21;80918.00;;;26.30
12007;BMP180;6062;47.294;12.182;2022-08-24T08:07:48;80923.00;;;26.60
12007;BMP180;6062;47.294;12.182;2022-08-24T08:10:14;80923.00;;;26.80
12007;BMP180;6062;47.294;12.182;2022-08-24T08:12:40;80918.00;;;26.90
12007;BMP180;6062;47.294;12.182;2022-08-24T08:15:08;80919.00;;;26.80
12007;BMP180;6062;47.294;12.182;2022-08-24T08:17:36;80929.00;;;26.80
12007;BMP180;6062;47.294;12.182;2022-08-24T08:20:06;80940.00;;;27.00
12007;BMP180;6062;47.294;12.182;2022-08-24T08:22:32;80933.00;;;27.10
12007;BMP180;6062;47.294;12.182;2022-08-24T08:25:16;80927.00;;;27.20
12007;BMP180;6062;47.294;12.182;2022-08-24T08:27:43;80936.00;;;27.40
12007;BMP180;6062;47.294;12.182;2022-08-24T08:30:10;80942.00;;;27.60
12007;BMP180;6062;47.294;12.182;2022-08-24T08:32:36;80941.00;;;27.50
12007;BMP180;6062;47.294;12.182;2022-08-24T08:35:03;80943.00;;;27.60
12007;BMP180;6062;47.294;12.182;2022-08-24T08:37:29;80943.00;;;27.90
12007;BMP180;6062;47.294;12.182;2022-08-24T08:39:56;80949.00;;;28.30
12007;BMP180;6062;47.294;12.182;2022-08-24T08:42:51;80942.00;;;28.50
12007;BMP180;6062;47.294;12.182;2022-08-24T08:51:39;80949.00;;;29.20
12007;BMP180;6062;47.294;12.182;2022-08-24T09:03:07;80954.00;;;29.60
12007;BMP180;6062;47.294;12.182;2022-08-24T09:12:16;80956.00;;;29.30
12007;BMP180;6062;47.294;12.182;2022-08-24T09:29:22;80947.00;;;27.90
12007;BMP180;6062;47.294;12.182;2022-08-24T09:32:26;80954.00;;;28.00
12007;BMP180;6062;47.294;12.182;2022-08-24T09:35:06;80949.00;;;28.20
12007;BMP180;6062;47.294;12.182;2022-08-24T09:40:54;80948.00;;;28.30
12007;BMP180;6062;47.294;12.182;2022-08-24T09:47:11;80951.00;;;27.70
12007;BMP180;6062;47.294;12.182;2022-08-24T09:50:10;80949.00;;;27.40
12007;BMP180;6062;47.294;12.182;2022-08-24T09:53:13;80944.00;;;27.20
12007;BMP180;6062;47.294;12.182;2022-08-24T10:05:11;80951.00;;;27.00
12007;BMP180;6062;47.294;12.182;2022-08-24T10:08:03;80946.00;;;26.50
12007;BMP180;6062;47.294;12.182;2022-08-24T10:14:15;80940.00;;;25.30
12007;BMP180;6062;47.294;12.182;2022-08-24T10:17:20;80940.00;;;24.80
12007;BMP180;6062;47.294;12.182;2022-08-24T10:25:29;80940.00;;;23.80
12007;BMP180;6062;47.294;12.182;2022-08-24T10:28:08;80945.00;;;23.40
12007;BMP180;6062;47.294;12.182;2022-08-24T10:31:08;80942.00;;;23.10
12007;BMP180;6062;47.294;12.182;2022-08-24T10:37:05;80940.00;;;22.60
12007;BMP180;6062;47.294;12.182;2022-08-24T10:40:36;80940.00;;;22.30
12007;BMP180;6062;47.294;12.182;2022-08-24T10:47:19;80940.00;;;22.00
12007;BMP180;6062;47.294;12.182;2022-08-24T10:52:51;80937.00;;;21.80
12007;BMP180;6062;47.294;12.182;2022-08-24T10:55:30;80945.00;;;21.90
12007;BMP180;6062;47.294;12.182;2022-08-24T10:58:24;80940.00;;;21.90
12007;BMP180;6062;47.294;12.182;2022-08-24T11:00:55;80939.00;;;21.90
12007;BMP180;6062;47.294;12.182;2022-08-24T11:03:21;80943.00;;;21.80
12007;BMP180;6062;47.294;12.182;2022-08-24T11:05:54;80942.00;;;21.70
12007;BMP180;6062;47.294;12.182;2022-08-24T11:08:31;80940.00;;;21.70
12007;BMP180;6062;47.294;12.182;2022-08-24T11:11:13;80939.00;;;21.70
12007;BMP180;6062;47.294;12.182;2022-08-24T11:13:54;80951.00;;;21.70
12007;BMP180;6062;47.294;12.182;2022-08-24T11:16:29;80946.00;;;21.60
12007;BMP180;6062;47.294;12.182;2022-08-24T11:18:59;80945.00;;;21.60
12007;BMP180;6062;47.294;12.182;2022-08-24T11:21:42;80953.00;;;21.50
12007;BMP180;6062;47.294;12.182;2022-08-24T11:24:38;80951.00;;;21.40
12007;BMP180;6062;47.294;12.182;2022-08-24T11:27:22;80960.00;;;21.40
12007;BMP180;6062;47.294;12.182;2022-08-24T11:32:44;80956.00;;;21.30
12007;BMP180;6062;47.294;12.182;2022-08-24T11:38:20;80959.00;;;21.50
12007;BMP180;6062;47.294;12.182;2022-08-24T11:41:01;80953.00;;;21.60
12007;BMP180;6062;47.294;12.182;2022-08-24T11:43:52;80949.00;;;21.60
12007;BMP180;6062;47.294;12.182;2022-08-24T11:46:48;80952.00;;;21.40
12007;BMP180;6062;47.294;12.182;2022-08-24T11:49:44;80953.00;;;21.20
12007;BMP180;6062;47.294;12.182;2022-08-24T11:52:39;80949.00;;;21.10
12007;BMP180;6062;47.294;12.182;2022-08-24T11:55:24;80951.00;;;21.00
12007;BMP180;6062;47.294;12.182;2022-08-24T11:58:11;80957.00;;;20.80
12007;BMP180;6062;47.294;12.182;2022-08-24T12:04:19;80950.00;;;20.80
12007;BMP180;6062;47.294;12.182;2022-08-24T12:10:12;80950.00;;;20.80
12007;BMP180;6062;47.294;12.182;2022-08-24T12:13:30;80953.00;;;20.70
12007;BMP180;6062;47.294;12.182;2022-08-24T12:16:06;80951.00;;;20.60
12007;BMP180;6062;47.294;12.182;2022-08-24T12:18:54;80950.00;;;20.60
12007;BMP180;6062;47.294;12.182;2022-08-24T12:21:28;80953.00;;;20.60
12007;BMP180;6062;47.294;12.182;2022-08-24T12:24:17;80942.00;;;20.60
12007;BMP180;6062;47.294;12.182;2022-08-24T12:26:49;80950.00;;;20.50
12007;BMP180;6062;47.294;12.182;2022-08-24T12:29:44;80938.00;;;20.60
12007;BMP180;6062;47.294;12.182;2022-08-24T12:32:40;80941.00;;;20.50
12007;BMP180;6062;47.294;12.182;2022-08-24T12:35:37;80948.00;;;20.40
12007;BMP180;6062;47.294;12.182;2022-08-24T12:38:15;80937.00;;;20.40
12007;BMP180;6062;47.294;12.182;2022-08-24T12:41:02;80940.00;;;20.40
12007;BMP180;6062;47.294;12.182;2022-08-24T12:43:53;80944.00;;;20.40
12007;BMP180;6062;47.294;12.182;2022-08-24T12:46:23;80940.00;;;20.30
12007;BMP180;6062;47.294;12.182;2022-08-24T12:49:10;80942.00;;;20.30
12007;BMP180;6062;47.294;12.182;2022-08-24T12:52:08;80940.00;;;20.10
12007;BMP180;6062;47.294;12.182;2022-08-24T12:55:14;80943.00;;;19.90
12007;BMP180;6062;47.294;12.182;2022-08-24T12:58:07;80951.00;;;19.70
12007;BMP180;6062;47.294;12.182;2022-08-24T13:00:45;80953.00;;;19.60
12007;BMP180;6062;47.294;12.182;2022-08-24T13:03:38;80949.00;;;19.50
12007;BMP180;6062;47.294;12.182;2022-08-24T13:06:29;80955.00;;;19.40
12007;BMP180;6062;47.294;12.182;2022-08-24T13:09:30;80958.00;;;19.40
12007;BMP180;6062;47.294;12.182;2022-08-24T13:17:57;80941.00;;;19.60
12007;BMP180;6062;47.294;12.182;2022-08-24T13:39:22;80939.00;;;19.20
12007;BMP180;6062;47.294;12.182;2022-08-24T13:42:16;80954.00;;;19.20
12007;BMP180;6062;47.294;12.182;2022-08-24T13:48:06;80946.00;;;19.30
12007;BMP180;6062;47.294;12.182;2022-08-24T13:51:14;80957.00;;;19.30
12007;BMP180;6062;47.294;12.182;2022-08-24T13:54:06;80955.00;;;19.20
12007;BMP180;6062;47.294;12.182;2022-08-24T14:05:29;80951.00;;;18.80
12007;BMP180;6062;47.294;12.182;2022-08-24T14:11:34;80960.00;;;18.90
12007;BMP180;6062;47.294;12.182;2022-08-24T14:14:24;80962.00;;;18.80
12007;BMP180;6062;47.294;12.182;2022-08-24T14:17:16;80959.00;;;18.80
12007;BMP180;6062;47.294;12.182;2022-08-24T14:20:42;80951.00;;;18.70
12007;BMP180;6062;47.294;12.182;2022-08-24T14:35:17;80959.00;;;18.40
12007;BMP180;6062;47.294;12.182;2022-08-24T14:41:17;80958.00;;;18.50
12007;BMP180;6062;47.294;12.182;2022-08-24T14:44:06;80961.00;;;18.60
12007;BMP180;6062;47.294;12.182;2022-08-24T14:50:00;80963.00;;;18.70
12007;BMP180;6062;47.294;12.182;2022-08-24T14:55:29;80959.00;;;18.70
12007;BMP180;6062;47.294;12.182;2022-08-24T15:04:14;80957.00;;;18.60
12007;BMP180;6062;47.294;12.182;2022-08-24T15:06:50;80965.00;;;18.50
12007;BMP180;6062;47.294;12.182;2022-08-24T15:09:33;80953.00;;;18.50
12007;BMP180;6062;47.294;12.182;2022-08-24T15:12:41;80952.00;;;18.50
12007;BMP180;6062;47.294;12.182;2022-08-24T15:21:22;80958.00;;;18.40
12007;BMP180;6062;47.294;12.182;2022-08-24T15:23:59;80957.00;;;18.40
12007;BMP180;6062;47.294;12.182;2022-08-24T15:27:29;80958.00;;;18.20
12007;BMP180;6062;47.294;12.182;2022-08-24T15:29:54;80958.00;;;18.20
12007;BMP180;6062;47.294;12.182;2022-08-24T15:32:24;80961.00;;;18.10
12007;BMP180;6062;47.294;12.182;2022-08-24T15:34:55;80956.00;;;18.10
12007;BMP180;6062;47.294;12.182;2022-08-24T15:37:38;80954.00;;;18.00
12007;BMP180;6062;47.294;12.182;2022-08-24T15:42:49;80958.00;;;18.10
12007;BMP180;6062;47.294;12.182;2022-08-24T15:45:17;80960.00;;;18.20
12007;BMP180;6062;47.294;12.182;2022-08-24T15:47:46;80966.00;;;18.40
12007;BMP180;6062;47.294;12.182;2022-08-24T15:50:28;80959.00;;;18.50
12007;BMP180;6062;47.294;12.182;2022-08-24T15:53:07;80955.00;;;18.60
12007;BMP180;6062;47.294;12.182;2022-08-24T15:55:49;80953.00;;;18.70
12007;BMP180;6062;47.294;12.182;2022-08-24T15:58:33;80960.00;;;18.80
12007;BMP180;6062;47.294;12.182;2022-08-24T16:01:23;80958.00;;;18.90
12007;BMP180;6062;47.294;12.182;2022-08-24T16:04:39;80952.00;;;19.00
12007;BMP180;6062;47.294;12.182;2022-08-24T16:07:12;80951.00;;;19.10
12007;BMP180;6062;47.294;12.182;2022-08-24T16:09:41;80958.00;;;19.20
12007;BMP180;6062;47.294;12.182;2022-08-24T16:12:15;80953.00;;;19.20
12007;BMP180;6062;47.294;12.182;2022-08-24T16:14:50;80955.00;;;19.30
12007;BMP180;6062;47.294;12.182;2022-08-24T16:17:35;80957.00;;;19.30
12007;BMP180;6062;47.294;12.182;2022-08-24T16:20:09;80958.00;;;19.40
12007;BMP180;6062;47.294;12.182;2022-08-24T16:22:47;80964.00;;;19.40
12007;BMP180;6062;47.294;12.182;2022-08-24T16:25:21;80963.00;;;19.50
12007;BMP180;6062;47.294;12.182;2022-08-24T16:30:57;80953.00;;;19.50
12007;BMP180;6062;47.294;12.182;2022-08-24T16:33:44;80962.00;;;19.40
12007;BMP180;6062;47.294;12.182;2022-08-24T16:36:15;80957.00;;;19.50
12007;BMP180;6062;47.294;12.182;2022-08-24T16:38:49;80963.00;;;19.60
12007;BMP180;6062;47.294;12.182;2022-08-24T16:41:19;80955.00;;;19.60
12007;BMP180;6062;47.294;12.182;2022-08-24T16:43:46;80964.00;;;19.70
12007;BMP180;6062;47.294;12.182;2022-08-24T16:46:20;80965.00;;;19.80
12007;BMP180;6062;47.294;12.182;2022-08-24T16:48:46;80965.00;;;19.80
12007;BMP180;6062;47.294;12.182;2022-08-24T16:51:12;80956.00;;;19.80
12007;BMP180;6062;47.294;12.182;2022-08-24T16:53:37;80957.00;;;19.80
12007;BMP180;6062;47.294;12.182;2022-08-24T16:56:03;80962.00;;;19.80
12007;BMP180;6062;47.294;12.182;2022-08-24T16:58:33;80951.00;;;19.70
12007;BMP180;6062;47.294;12.182;2022-08-24T17:01:00;80951.00;;;19.70
12007;BMP180;6062;47.294;12.182;2022-08-24T17:03:27;80957.00;;;19.70
12007;BMP180;6062;47.294;12.182;2022-08-24T17:05:55;80953.00;;;19.60
12007;BMP180;6062;47.294;12.182;2022-08-24T17:08:21;80964.00;;;19.50
12007;BMP180;6062;47.294;12.182;2022-08-24T17:10:46;80963.00;;;19.40
12007;BMP180;6062;47.294;12.182;2022-08-24T17:13:12;80964.00;;;19.30
12007;BMP180;6062;47.294;12.182;2022-08-24T17:15:38;80970.00;;;19.20
12007;BMP180;6062;47.294;12.182;2022-08-24T17:18:07;80971.00;;;19.10
12007;BMP180;6062;47.294;12.182;2022-08-24T17:20:34;80964.00;;;19.10
12007;BMP180;6062;47.294;12.182;2022-08-24T17:23:00;80969.00;;;19.00
12007;BMP180;6062;47.294;12.182;2022-08-24T17:25:28;80972.00;;;18.90
12007;BMP180;6062;47.294;12.182;2022-08-24T17:27:56;80971.00;;;18.80
12007;BMP180;6062;47.294;12.182;2022-08-24T17:30:23;80966.00;;;18.70